createdAt,value
2019-03-25T00:00:56.743Z,54.44
2019-03-25T00:03:27.973Z,54.45
2019-03-25T00:05:58.811Z,54.87
2019-03-25T00:08:29.767Z,54.25
2019-03-25T00:11:01.127Z,53.64
2019-03-25T00:13:32.006Z,53.40
2019-03-25T00:16:03.259Z,53.87
2019-03-25T00:18:34.563Z,53.61
2019-03-25T00:21:05.491Z,53.58
2019-03-25T00:23:36.399Z,54.36
2019-03-25T00:26:07.355Z,54.59
2019-03-25T00:28:38.263Z,54.06
2019-03-25T00:31:09.392Z,53.68
2019-03-25T00:33:40.233Z,53.78
2019-03-25T00:36:11.113Z,54.03
2019-03-25T00:38:42.421Z,54.44
2019-03-25T00:41:13.558Z,54.21
2019-03-25T00:43:44.788Z,54.23
2019-03-25T00:46:15.871Z,53.92
2019-03-25T00:48:47.218Z,53.81
2019-03-25T00:51:18.479Z,53.83
2019-03-25T00:53:49.486Z,53.08
2019-03-25T00:56:20.445Z,52.94
2019-03-25T00:58:51.621Z,52.90
2019-03-25T01:01:22.626Z,54.02
2019-03-25T01:03:53.673Z,53.70
2019-03-25T01:06:24.871Z,52.90
2019-03-25T01:08:56.197Z,53.04
2019-03-25T01:11:27.370Z,52.90
2019-03-25T01:13:58.665Z,52.86
2019-03-25T01:16:30.002Z,52.72
2019-03-25T01:19:01.046Z,52.92
2019-03-25T01:21:32.298Z,52.26
2019-03-25T01:24:03.574Z,52.22
2019-03-25T01:26:34.982Z,52.02
2019-03-25T01:29:06.100Z,52.48
2019-03-25T01:31:37.066Z,52.67
2019-03-25T01:34:08.087Z,52.88
2019-03-25T01:36:39.217Z,53.23
2019-03-25T01:39:10.549Z,53.40
2019-03-25T01:41:41.496Z,53.77
2019-03-25T01:44:12.683Z,53.91
2019-03-25T01:46:43.511Z,53.93
2019-03-25T01:49:15.628Z,55.10
2019-03-25T01:51:46.797Z,56.41
2019-03-25T01:54:17.686Z,56.17
2019-03-25T01:56:48.633Z,55.69
2019-03-25T01:59:19.888Z,56.04
2019-03-25T02:01:50.770Z,57.28
2019-03-25T02:04:21.744Z,58.02
2019-03-25T02:06:52.704Z,58.62
2019-03-25T02:09:23.769Z,58.71
2019-03-25T02:11:54.930Z,58.82
2019-03-25T02:14:25.803Z,59.40
2019-03-25T02:16:56.626Z,59.39
2019-03-25T02:19:27.933Z,59.43
2019-03-25T02:21:58.989Z,59.71
2019-03-25T02:24:30.099Z,59.28
2019-03-25T02:27:01.702Z,58.84
2019-03-25T02:29:32.626Z,58.80
2019-03-25T02:32:03.466Z,58.11
2019-03-25T02:34:35.559Z,58.14
2019-03-25T02:37:06.402Z,58.58
2019-03-25T02:39:37.504Z,58.31
2019-03-25T02:42:08.729Z,57.88
2019-03-25T02:44:39.852Z,58.05
2019-03-25T02:47:11.057Z,58.65
2019-03-25T02:49:42.291Z,58.42
2019-03-25T02:52:13.119Z,58.57
2019-03-25T02:54:44.296Z,58.43
2019-03-25T02:57:15.639Z,57.91
2019-03-25T02:59:46.449Z,57.55
2019-03-25T03:02:17.369Z,56.74
2019-03-25T03:04:48.307Z,56.42
2019-03-25T03:07:19.279Z,56.46
2019-03-25T03:09:50.412Z,56.56
2019-03-25T03:12:21.270Z,56.58
2019-03-25T03:14:53.381Z,56.33
2019-03-25T03:17:24.902Z,56.58
2019-03-25T03:19:55.862Z,56.74
2019-03-25T03:22:26.852Z,57.18
2019-03-25T03:24:58.131Z,56.64
2019-03-25T03:27:29.995Z,57.13
2019-03-25T03:30:01.379Z,57.96
2019-03-25T03:32:32.619Z,58.82
2019-03-25T03:35:03.445Z,59.49
2019-03-25T03:37:34.392Z,58.73
2019-03-25T03:40:06.088Z,58.85
2019-03-25T03:42:37.065Z,59.68
2019-03-25T03:45:09.347Z,60.37
2019-03-25T03:47:40.619Z,61.02
2019-03-25T03:50:16.404Z,61.18
2019-03-25T03:52:47.546Z,61.35
2019-03-25T03:55:18.752Z,60.67
2019-03-25T03:57:49.796Z,60.23
2019-03-25T04:00:29.256Z,59.43
2019-03-25T04:03:00.513Z,58.69
2019-03-25T04:05:31.717Z,58.64
2019-03-25T04:08:02.643Z,58.60
2019-03-25T04:10:33.648Z,58.42
2019-03-25T04:13:04.748Z,59.24
2019-03-25T04:15:35.847Z,60.26
2019-03-25T04:18:07.059Z,59.94
2019-03-25T04:20:38.072Z,59.89
2019-03-25T04:23:09.145Z,59.79
2019-03-25T04:25:40.473Z,59.54
2019-03-25T04:28:11.388Z,59.66
2019-03-25T04:30:42.426Z,58.47
2019-03-25T04:33:14.330Z,60.26
2019-03-25T04:35:45.206Z,61.59
2019-03-25T04:38:16.147Z,62.17
2019-03-25T04:40:47.428Z,62.57
2019-03-25T04:43:18.465Z,62.62
2019-03-25T04:45:49.737Z,62.27
2019-03-25T04:48:20.874Z,62.44
2019-03-25T04:50:51.865Z,61.49
2019-03-25T04:53:23.032Z,61.33
2019-03-25T04:55:54.920Z,61.29
2019-03-25T04:58:25.855Z,60.63
2019-03-25T05:00:57.215Z,60.54
2019-03-25T05:03:29.018Z,60.42
2019-03-25T05:06:00.068Z,61.81
2019-03-25T05:08:31.321Z,61.49
2019-03-25T05:11:03.913Z,61.04
2019-03-25T05:13:34.719Z,61.01
2019-03-25T05:16:06.979Z,60.90
2019-03-25T05:18:38.091Z,60.79
2019-03-25T05:21:10.523Z,60.57
2019-03-25T05:23:41.439Z,60.19
2019-03-25T05:26:12.504Z,59.61
2019-03-25T05:28:43.594Z,58.16
2019-03-25T05:31:14.746Z,57.46
2019-03-25T05:33:45.552Z,57.63
2019-03-25T05:36:16.521Z,57.02
2019-03-25T05:38:48.648Z,55.89
2019-03-25T05:41:19.734Z,55.56
2019-03-25T05:43:50.871Z,55.46
2019-03-25T05:46:23.149Z,55.34
2019-03-25T05:48:53.989Z,55.02
2019-03-25T05:51:25.054Z,54.73
2019-03-25T05:53:56.219Z,54.31
2019-03-25T05:56:27.158Z,53.87
2019-03-25T05:58:58.257Z,53.60
2019-03-25T06:01:29.432Z,52.69
2019-03-25T06:04:00.311Z,50.87
2019-03-25T06:06:31.205Z,50.99
2019-03-25T06:09:02.411Z,50.91
2019-03-25T06:11:33.670Z,48.58
2019-03-25T06:14:04.628Z,49.61
2019-03-25T06:16:35.701Z,48.92
2019-03-25T06:19:06.846Z,48.20
2019-03-25T06:21:37.940Z,48.60
2019-03-25T06:24:08.983Z,48.18
2019-03-25T06:26:39.904Z,47.64
2019-03-25T06:29:12.693Z,46.95
2019-03-25T06:31:43.902Z,46.64
2019-03-25T06:34:14.763Z,44.66
2019-03-25T06:36:45.728Z,44.86
2019-03-25T06:39:16.681Z,44.61
2019-03-25T06:41:47.682Z,44.29
2019-03-25T06:44:18.780Z,44.40
2019-03-25T06:46:49.958Z,44.60
2019-03-25T06:49:20.866Z,44.11
2019-03-25T06:51:51.871Z,43.60
2019-03-25T06:54:22.905Z,42.45
2019-03-25T06:56:54.134Z,42.36
2019-03-25T06:59:25.279Z,42.20
2019-03-25T07:01:56.238Z,41.86
2019-03-25T07:04:27.471Z,40.80
2019-03-25T07:06:58.808Z,40.20
2019-03-25T07:09:29.674Z,40.21
2019-03-25T07:12:00.746Z,39.91
2019-03-25T07:14:31.903Z,39.87
2019-03-25T07:17:02.746Z,39.70
2019-03-25T07:19:33.694Z,39.14
2019-03-25T07:22:04.942Z,39.01
2019-03-25T07:24:35.820Z,38.93
2019-03-25T07:27:07.025Z,38.32
2019-03-25T07:29:37.869Z,38.55
2019-03-25T07:32:09.259Z,38.12
2019-03-25T07:34:41.341Z,37.35
2019-03-25T07:37:12.275Z,37.33
2019-03-25T07:39:43.250Z,37.66
2019-03-25T07:42:14.415Z,37.00
2019-03-25T07:44:45.249Z,37.71
2019-03-25T07:47:17.102Z,37.61
2019-03-25T07:49:48.261Z,37.33
2019-03-25T07:52:19.303Z,35.91
2019-03-25T07:54:50.208Z,35.44
2019-03-25T07:57:21.482Z,35.25
2019-03-25T07:59:52.702Z,35.28
2019-03-25T08:02:23.988Z,35.22
2019-03-25T08:04:55.075Z,35.03
2019-03-25T08:07:26.269Z,34.78
2019-03-25T08:09:58.228Z,35.12
2019-03-25T08:12:29.423Z,35.23
2019-03-25T08:15:00.450Z,34.77
2019-03-25T08:17:31.423Z,33.82
2019-03-25T08:20:02.273Z,33.33
2019-03-25T08:22:33.472Z,33.64
2019-03-25T08:25:04.584Z,33.73
2019-03-25T08:27:35.444Z,33.24
2019-03-25T08:30:09.472Z,33.17
2019-03-25T08:32:40.507Z,32.03
2019-03-25T08:37:49.764Z,31.94
2019-03-25T08:40:20.945Z,31.99
2019-03-25T08:42:53.230Z,32.10
2019-03-25T08:45:24.715Z,31.67
2019-03-25T08:47:55.664Z,31.49
2019-03-25T08:50:26.603Z,31.18
2019-03-25T08:52:57.751Z,30.95
2019-03-25T08:55:28.645Z,30.24
2019-03-25T08:58:11.210Z,29.93
2019-03-25T09:00:32.798Z,29.56
2019-03-25T09:03:03.925Z,28.68
2019-03-25T09:05:35.044Z,28.74
2019-03-25T09:08:06.023Z,28.53
2019-03-25T09:10:37.217Z,29.04
2019-03-25T09:13:08.442Z,28.91
2019-03-25T09:15:39.301Z,28.57
2019-03-25T09:18:10.545Z,28.47
2019-03-25T09:20:41.732Z,28.44
2019-03-25T09:23:12.634Z,27.69
2019-03-25T09:25:43.692Z,27.60
2019-03-25T09:28:23.646Z,26.95
2019-03-25T09:31:19.897Z,27.22
2019-03-25T09:33:51.050Z,26.58
2019-03-25T09:36:24.935Z,25.79
2019-03-25T09:38:55.967Z,26.07
2019-03-25T09:41:27.166Z,26.06
2019-03-25T09:43:58.429Z,26.32
2019-03-25T09:46:29.370Z,26.52
2019-03-25T09:49:00.972Z,26.10
2019-03-25T09:51:31.866Z,25.52
2019-03-25T09:54:02.796Z,24.70
2019-03-25T09:56:33.843Z,23.92
2019-03-25T09:59:05.211Z,22.11
2019-03-25T10:01:36.054Z,22.07
2019-03-25T10:04:07.721Z,21.23
2019-03-25T10:06:38.952Z,20.80
2019-03-25T10:09:12.300Z,21.48
2019-03-25T10:11:43.142Z,20.67
2019-03-25T10:14:17.299Z,20.00
2019-03-25T10:16:48.611Z,20.30
2019-03-25T10:19:19.985Z,20.03
2019-03-25T10:21:50.831Z,20.12
2019-03-25T10:24:27.634Z,19.26
2019-03-25T10:26:54.920Z,18.28
2019-03-25T10:29:25.799Z,18.43
2019-03-25T10:31:56.894Z,18.70
2019-03-25T10:34:27.968Z,17.60
2019-03-25T10:36:58.833Z,17.77
2019-03-25T10:39:30.072Z,17.11
2019-03-25T10:42:01.008Z,16.67
2019-03-25T10:44:32.480Z,16.97
2019-03-25T10:47:03.780Z,17.07
2019-03-25T10:49:34.953Z,16.37
2019-03-25T10:52:06.145Z,16.58
2019-03-25T10:54:37.764Z,16.27
2019-03-25T10:57:08.677Z,16.81
2019-03-25T10:59:39.756Z,16.75
2019-03-25T11:02:11.086Z,17.08
2019-03-25T11:04:43.071Z,17.26
2019-03-25T11:07:14.217Z,16.63
2019-03-25T11:09:45.583Z,17.08
2019-03-25T11:12:16.438Z,17.11
2019-03-25T11:14:47.743Z,16.59
2019-03-25T11:17:18.695Z,16.97
2019-03-25T11:19:50.115Z,16.46
2019-03-25T11:22:21.255Z,16.47
2019-03-25T11:24:52.304Z,16.33
2019-03-25T11:27:23.226Z,15.80
2019-03-25T11:29:54.385Z,16.08
2019-03-25T11:32:25.213Z,16.56
2019-03-25T11:34:56.092Z,16.14
2019-03-25T11:37:27.128Z,16.54
2019-03-25T11:39:58.233Z,16.74
2019-03-25T11:42:29.167Z,16.43
2019-03-25T11:45:01.365Z,15.66
2019-03-25T11:47:32.591Z,15.88
2019-03-25T11:50:04.010Z,16.50
2019-03-25T11:52:34.848Z,15.99
2019-03-25T11:55:06.581Z,16.39
2019-03-25T11:57:38.805Z,17.34
2019-03-25T12:00:10.346Z,17.22
2019-03-25T12:02:41.195Z,17.40
2019-03-25T12:05:12.576Z,16.92
2019-03-25T12:07:43.590Z,17.00
2019-03-25T12:10:14.703Z,15.94
2019-03-25T12:12:45.838Z,14.79
2019-03-25T12:15:17.299Z,14.56
2019-03-25T12:17:48.207Z,14.80
2019-03-25T12:20:19.447Z,14.63
2019-03-25T12:22:50.743Z,15.69
2019-03-25T12:25:21.708Z,14.54
2019-03-25T12:27:52.948Z,14.26
2019-03-25T12:30:25.389Z,13.76
2019-03-25T12:33:03.888Z,13.99
2019-03-25T12:35:29.976Z,14.40
2019-03-25T12:38:01.166Z,13.47
2019-03-25T12:40:32.161Z,14.21
2019-03-25T12:43:02.975Z,14.15
2019-03-25T12:45:33.964Z,15.09
2019-03-25T12:48:05.326Z,15.28
2019-03-25T12:50:37.377Z,16.45
2019-03-25T12:53:08.314Z,16.70
2019-03-25T12:55:39.540Z,16.32
2019-03-25T12:58:10.647Z,15.52
2019-03-25T13:00:43.223Z,15.86
2019-03-25T13:03:14.064Z,15.89
2019-03-25T13:05:46.347Z,15.68
2019-03-25T13:08:17.473Z,15.95
2019-03-25T13:10:49.608Z,15.06
2019-03-25T13:13:20.542Z,15.64
2019-03-25T13:15:51.526Z,14.47
2019-03-25T13:18:22.372Z,13.85
2019-03-25T13:20:53.514Z,13.43
2019-03-25T13:23:24.449Z,14.13
2019-03-25T13:25:55.640Z,12.94
2019-03-25T13:28:26.600Z,12.59
2019-03-25T13:30:57.515Z,12.69
2019-03-25T13:33:29.495Z,13.26
2019-03-25T13:36:00.712Z,12.69
2019-03-25T13:38:31.565Z,13.41
2019-03-25T13:41:02.819Z,13.78
2019-03-25T13:43:34.072Z,13.91
2019-03-25T13:46:05.918Z,14.46
2019-03-25T13:48:37.801Z,14.07
2019-03-25T13:51:08.821Z,13.99
2019-03-25T13:53:39.848Z,13.87
2019-03-25T13:56:11.159Z,13.11
2019-03-25T13:58:42.219Z,13.19
2019-03-25T14:01:13.319Z,12.77
2019-03-25T14:03:44.393Z,12.81
2019-03-25T14:06:15.441Z,12.80
2019-03-25T14:08:46.410Z,12.23
2019-03-25T14:11:17.836Z,12.43
2019-03-25T14:13:49.649Z,12.61
2019-03-25T14:16:20.594Z,13.46
2019-03-25T14:18:51.545Z,13.43
2019-03-25T14:21:22.452Z,13.83
2019-03-25T14:23:53.495Z,14.00
2019-03-25T14:26:24.668Z,13.42
2019-03-25T14:28:55.562Z,12.17
2019-03-25T14:31:26.791Z,12.49
2019-03-25T14:33:57.721Z,12.12
2019-03-25T14:36:29.614Z,12.35
2019-03-25T14:39:00.979Z,11.58
2019-03-25T14:41:33.552Z,12.02
2019-03-25T14:44:04.510Z,12.34
2019-03-25T14:46:35.762Z,11.89
2019-03-25T14:49:07.067Z,12.51
2019-03-25T14:51:37.918Z,12.42
2019-03-25T14:54:08.868Z,12.01
2019-03-25T14:56:40.137Z,12.32
2019-03-25T14:59:12.778Z,11.70
2019-03-25T15:01:44.075Z,11.53
2019-03-25T15:04:14.964Z,11.95
2019-03-25T15:06:46.132Z,11.93
2019-03-25T15:09:17.314Z,11.82
2019-03-25T15:11:48.217Z,11.89
2019-03-25T15:14:19.171Z,11.73
2019-03-25T15:16:50.218Z,11.80
2019-03-25T15:19:22.006Z,11.78
2019-03-25T15:21:53.012Z,11.90
2019-03-25T15:24:24.078Z,11.51
2019-03-25T15:26:54.957Z,11.66
2019-03-25T15:29:25.894Z,11.59
2019-03-25T15:31:56.970Z,11.42
2019-03-25T15:34:28.160Z,11.62
2019-03-25T15:36:59.376Z,12.10
2019-03-25T15:39:30.487Z,12.42
2019-03-25T15:42:01.564Z,12.54
2019-03-25T15:44:32.826Z,12.33
2019-03-25T15:47:03.721Z,11.86
2019-03-25T15:49:34.654Z,11.88
2019-03-25T15:52:06.414Z,11.28
2019-03-25T15:54:37.474Z,11.38
2019-03-25T15:57:09.425Z,11.49
2019-03-25T15:59:41.032Z,11.26
2019-03-25T16:02:12.545Z,11.15
2019-03-25T16:04:43.846Z,11.30
2019-03-25T16:07:15.169Z,11.16
2019-03-25T16:09:46.278Z,11.17
2019-03-25T16:12:17.452Z,11.13
2019-03-25T16:14:48.410Z,11.09
2019-03-25T16:17:19.315Z,11.67
2019-03-25T16:19:50.497Z,11.51
2019-03-25T16:22:21.404Z,12.70
2019-03-25T16:24:52.240Z,12.86
2019-03-25T16:27:23.459Z,12.91
2019-03-25T16:29:54.540Z,12.60
2019-03-25T16:32:25.483Z,13.07
2019-03-25T16:34:56.775Z,13.58
2019-03-25T16:37:28.325Z,13.50
2019-03-25T16:39:59.156Z,13.87
2019-03-25T16:42:30.137Z,14.44
2019-03-25T16:45:01.659Z,14.33
2019-03-25T16:47:32.817Z,14.02
2019-03-25T16:50:03.853Z,14.34
2019-03-25T16:52:35.082Z,14.98
2019-03-25T16:55:06.352Z,15.03
2019-03-25T16:57:38.608Z,15.21
2019-03-25T17:00:10.176Z,16.22
2019-03-25T17:02:42.180Z,17.11
2019-03-25T17:05:13.017Z,18.46
2019-03-25T17:07:44.082Z,19.41
2019-03-25T17:10:15.155Z,20.23
2019-03-25T17:12:46.592Z,21.41
2019-03-25T17:15:17.419Z,22.21
2019-03-25T17:17:48.319Z,22.21
2019-03-25T17:20:19.490Z,22.21
2019-03-25T17:22:50.898Z,22.56
2019-03-25T17:25:21.788Z,22.62
2019-03-25T17:27:53.190Z,23.09
2019-03-25T17:30:24.572Z,23.46
2019-03-25T17:32:56.713Z,23.64
2019-03-25T17:35:27.681Z,23.62
2019-03-25T17:37:59.727Z,23.81
2019-03-25T17:40:30.698Z,23.74
2019-03-25T17:43:01.956Z,23.18
2019-03-25T17:45:32.808Z,23.38
2019-03-25T17:48:04.501Z,23.42
2019-03-25T17:50:35.667Z,23.59
2019-03-25T17:53:06.634Z,22.93
2019-03-25T17:55:37.951Z,23.79
2019-03-25T17:58:09.219Z,24.29
2019-03-25T18:01:32.436Z,24.14
2019-03-25T18:04:01.400Z,24.11
2019-03-25T18:06:32.402Z,24.78
2019-03-25T18:09:07.226Z,24.77
2019-03-25T18:11:38.131Z,24.68
2019-03-25T18:14:09.663Z,24.96
2019-03-25T18:16:40.785Z,25.40
2019-03-25T18:19:12.058Z,25.87
2019-03-25T18:21:42.898Z,25.86
2019-03-25T18:24:14.043Z,25.53
2019-03-25T18:26:45.103Z,25.58
2019-03-25T18:29:17.123Z,25.53
2019-03-25T18:31:48.280Z,25.87
2019-03-25T18:34:19.277Z,25.31
2019-03-25T18:36:50.159Z,25.25
2019-03-25T18:39:21.198Z,25.28
2019-03-25T18:41:52.440Z,25.18
2019-03-25T18:44:23.525Z,25.35
2019-03-25T18:46:54.732Z,25.76
2019-03-25T18:49:25.642Z,25.55
2019-03-25T18:51:56.656Z,25.77
2019-03-25T18:54:27.901Z,25.95
2019-03-25T18:56:59.427Z,25.92
2019-03-25T18:59:30.323Z,25.95
2019-03-25T19:02:01.507Z,26.00
2019-03-25T19:04:32.606Z,26.27
2019-03-25T19:07:03.575Z,26.04
2019-03-25T19:09:34.899Z,25.67
2019-03-25T19:12:06.039Z,25.49
2019-03-25T19:14:36.949Z,25.53
2019-03-25T19:17:08.174Z,25.34
2019-03-25T19:19:40.177Z,25.50
2019-03-25T19:22:12.938Z,25.28
2019-03-25T19:24:44.287Z,25.31
2019-03-25T19:27:17.558Z,25.59
2019-03-25T19:29:48.995Z,25.79
2019-03-25T19:32:20.123Z,25.71
2019-03-25T19:34:51.006Z,26.20
2019-03-25T19:37:21.953Z,26.60
2019-03-25T19:39:54.126Z,26.78
2019-03-25T19:42:25.214Z,27.03
2019-03-25T19:44:56.405Z,27.29
2019-03-25T19:47:27.790Z,27.63
2019-03-25T19:49:58.849Z,27.99
2019-03-25T19:52:30.012Z,28.26
2019-03-25T19:55:01.081Z,28.58
2019-03-25T19:57:32.460Z,28.94
2019-03-25T20:00:04.506Z,28.99
2019-03-25T20:02:35.430Z,29.22
2019-03-25T20:05:06.897Z,29.52
2019-03-25T20:07:39.367Z,30.27
2019-03-25T20:10:17.408Z,30.64
2019-03-25T20:12:48.596Z,30.79
2019-03-25T20:15:19.889Z,31.03
2019-03-25T20:17:50.736Z,31.34
2019-03-25T20:20:21.717Z,31.36
2019-03-25T20:22:52.909Z,31.72
2019-03-25T20:25:24.329Z,32.04
2019-03-25T20:27:55.603Z,32.18
2019-03-25T20:30:26.767Z,32.23
2019-03-25T20:32:57.931Z,32.43
2019-03-25T20:35:29.900Z,32.50
2019-03-25T20:38:00.819Z,32.74
2019-03-25T20:40:32.213Z,33.18
2019-03-25T20:43:03.343Z,33.57
2019-03-25T20:45:34.592Z,33.38
2019-03-25T20:48:05.568Z,33.43
2019-03-25T20:50:36.796Z,33.54
2019-03-25T20:53:08.122Z,34.23
2019-03-25T20:55:39.093Z,34.75
2019-03-25T20:58:10.251Z,34.66
2019-03-25T21:00:55.701Z,34.93
2019-03-25T21:03:26.724Z,35.37
2019-03-25T21:05:57.703Z,35.11
2019-03-25T21:08:28.759Z,34.90
2019-03-25T21:10:59.748Z,35.10
2019-03-25T21:13:30.677Z,35.60
2019-03-25T21:16:02.005Z,35.66
2019-03-25T21:18:32.994Z,35.83
2019-03-25T21:21:04.180Z,36.94
2019-03-25T21:23:35.395Z,37.63
2019-03-25T21:26:06.547Z,36.95
2019-03-25T21:28:37.722Z,37.34
2019-03-25T21:31:08.608Z,39.04
2019-03-25T21:33:39.489Z,39.81
2019-03-25T21:36:11.878Z,41.10
2019-03-25T21:38:43.069Z,41.68
2019-03-25T21:41:14.139Z,42.16
2019-03-25T21:43:45.401Z,42.65
2019-03-25T21:46:16.557Z,43.33
2019-03-25T21:48:47.498Z,43.71
2019-03-25T21:51:18.893Z,44.27
2019-03-25T21:53:52.987Z,44.65
2019-03-25T21:56:22.873Z,44.87
2019-03-25T21:58:53.963Z,45.28
2019-03-25T22:01:24.890Z,45.01
2019-03-25T22:03:56.193Z,45.38
2019-03-25T22:06:27.168Z,45.63
2019-03-25T22:08:58.083Z,45.54
2019-03-25T22:11:29.553Z,45.71
2019-03-25T22:14:01.659Z,45.70
2019-03-25T22:16:32.651Z,45.84
2019-03-25T22:19:03.930Z,46.02
2019-03-25T22:21:35.263Z,45.39
2019-03-25T22:24:06.206Z,45.47
2019-03-25T22:26:37.252Z,46.12
2019-03-25T22:29:09.360Z,46.30
2019-03-25T22:31:40.333Z,46.10
2019-03-25T22:34:11.507Z,46.05
2019-03-25T22:36:42.381Z,45.61
2019-03-25T22:39:13.457Z,44.66
2019-03-25T22:41:44.645Z,44.86
2019-03-25T22:44:15.488Z,45.12
2019-03-25T22:46:46.746Z,45.46
2019-03-25T22:49:17.692Z,45.70
2019-03-25T22:51:48.646Z,46.33
2019-03-25T22:54:19.690Z,46.18
2019-03-25T22:56:50.790Z,46.24
2019-03-25T22:59:21.755Z,46.23
2019-03-25T23:01:52.595Z,46.97
2019-03-25T23:04:23.722Z,47.10
2019-03-25T23:06:54.903Z,47.08
2019-03-25T23:09:26.243Z,46.98
2019-03-25T23:11:59.215Z,46.86
2019-03-25T23:14:30.177Z,46.86
2019-03-25T23:17:01.376Z,46.36
2019-03-25T23:19:32.253Z,46.01
2019-03-25T23:22:03.092Z,46.75
2019-03-25T23:24:34.364Z,47.08
2019-03-25T23:27:05.500Z,46.89
2019-03-25T23:29:36.429Z,47.00
2019-03-25T23:32:07.487Z,47.23
2019-03-25T23:34:38.505Z,46.99
2019-03-25T23:37:09.554Z,47.21
2019-03-25T23:39:40.696Z,47.20
2019-03-25T23:42:13.298Z,47.08
2019-03-25T23:44:44.715Z,46.97
2019-03-25T23:47:15.747Z,46.84
2019-03-25T23:49:46.757Z,47.04
2019-03-25T23:52:18.005Z,46.65
2019-03-25T23:54:49.350Z,46.88
2019-03-25T23:57:20.291Z,46.25
2019-03-25T23:59:51.667Z,46.39
